sensor_id;sensor_type;location;lat;lon;timestamp;P1;durP1;ratioP1;P2;durP2;ratioP2
20597;SDS011;10457;48.770;11.446;2023-03-11T00:03:24;1.27;;;1.17;;
20597;SDS011;10457;48.770;11.446;2023-03-11T00:08:48;1.37;;;1.07;;
20597;SDS011;10457;48.770;11.446;2023-03-11T00:14:10;2.00;;;1.20;;
20597;SDS011;10457;48.770;11.446;2023-03-11T00:19:32;0.90;;;0.90;;
20597;SDS011;10457;48.770;11.446;2023-03-11T00:24:55;0.60;;;0.60;;
20597;SDS011;10457;48.770;11.446;2023-03-11T00:30:17;1.37;;;1.03;;
20597;SDS011;10457;48.770;11.446;2023-03-11T00:35:39;1.30;;;0.80;;
20597;SDS011;10457;48.770;11.446;2023-03-11T00:41:03;1.00;;;0.70;;
20597;SDS011;10457;48.770;11.446;2023-03-11T00:46:25;1.60;;;1.00;;
20597;SDS011;10457;48.770;11.446;2023-03-11T00:51:47;0.90;;;0.83;;
20597;SDS011;10457;48.770;11.446;2023-03-11T00:57:10;1.03;;;0.93;;
20597;SDS011;10457;48.770;11.446;2023-03-11T01:02:33;1.67;;;1.23;;
20597;SDS011;10457;48.770;11.446;2023-03-11T01:07:55;1.60;;;1.27;;
20597;SDS011;10457;48.770;11.446;2023-03-11T01:13:20;2.63;;;1.10;;
20597;SDS011;10457;48.770;11.446;2023-03-11T01:18:42;0.93;;;0.93;;
20597;SDS011;10457;48.770;11.446;2023-03-11T01:24:03;1.30;;;1.20;;
20597;SDS011;10457;48.770;11.446;2023-03-11T01:29:27;1.70;;;1.00;;
20597;SDS011;10457;48.770;11.446;2023-03-11T01:34:49;0.87;;;0.87;;
20597;SDS011;10457;48.770;11.446;2023-03-11T01:40:12;1.27;;;1.17;;
20597;SDS011;10457;48.770;11.446;2023-03-11T01:46:01;1.23;;;1.13;;
20597;SDS011;10457;48.770;11.446;2023-03-11T01:51:31;1.97;;;1.60;;
20597;SDS011;10457;48.770;11.446;2023-03-11T01:56:58;1.80;;;1.40;;
20597;SDS011;10457;48.770;11.446;2023-03-11T02:02:24;1.60;;;1.50;;
20597;SDS011;10457;48.770;11.446;2023-03-11T02:07:51;1.87;;;1.77;;
20597;SDS011;10457;48.770;11.446;2023-03-11T02:13:17;2.53;;;1.73;;
20597;SDS011;10457;48.770;11.446;2023-03-11T02:18:41;1.73;;;1.60;;
20597;SDS011;10457;48.770;11.446;2023-03-11T02:24:04;2.27;;;1.77;;
20597;SDS011;10457;48.770;11.446;2023-03-11T02:29:35;2.10;;;1.90;;
20597;SDS011;10457;48.770;11.446;2023-03-11T02:34:58;1.87;;;1.73;;
20597;SDS011;10457;48.770;11.446;2023-03-11T02:46:14;1.87;;;1.73;;
20597;SDS011;10457;48.770;11.446;2023-03-11T02:51:37;2.50;;;2.17;;
20597;SDS011;10457;48.770;11.446;2023-03-11T02:56:59;1.60;;;1.50;;
20597;SDS011;10457;48.770;11.446;2023-03-11T03:02:22;1.70;;;1.47;;
20597;SDS011;10457;48.770;11.446;2023-03-11T03:07:45;1.50;;;1.40;;
20597;SDS011;10457;48.770;11.446;2023-03-11T03:13:07;1.40;;;1.30;;
20597;SDS011;10457;48.770;11.446;2023-03-11T03:18:30;2.87;;;1.70;;
20597;SDS011;10457;48.770;11.446;2023-03-11T03:23:52;1.70;;;1.40;;
20597;SDS011;10457;48.770;11.446;2023-03-11T03:29:13;1.53;;;1.17;;
20597;SDS011;10457;48.770;11.446;2023-03-11T03:34:37;1.50;;;1.40;;
20597;SDS011;10457;48.770;11.446;2023-03-11T03:39:58;1.63;;;1.33;;
20597;SDS011;10457;48.770;11.446;2023-03-11T03:45:22;2.23;;;0.90;;
20597;SDS011;10457;48.770;11.446;2023-03-11T03:50:47;0.47;;;0.47;;
20597;SDS011;10457;48.770;11.446;2023-03-11T03:56:10;0.97;;;0.60;;
20597;SDS011;10457;48.770;11.446;2023-03-11T04:01:33;1.17;;;0.50;;
20597;SDS011;10457;48.770;11.446;2023-03-11T04:06:55;1.07;;;0.83;;
20597;SDS011;10457;48.770;11.446;2023-03-11T04:12:17;0.83;;;0.83;;
20597;SDS011;10457;48.770;11.446;2023-03-11T04:17:39;3.90;;;1.00;;
20597;SDS011;10457;48.770;11.446;2023-03-11T04:23:02;2.63;;;1.13;;
20597;SDS011;10457;48.770;11.446;2023-03-11T04:28:24;5.07;;;0.87;;
20597;SDS011;10457;48.770;11.446;2023-03-11T04:33:46;1.70;;;0.60;;
20597;SDS011;10457;48.770;11.446;2023-03-11T04:39:09;2.53;;;0.77;;
20597;SDS011;10457;48.770;11.446;2023-03-11T04:44:35;0.80;;;0.80;;
20597;SDS011;10457;48.770;11.446;2023-03-11T04:49:58;1.57;;;0.80;;
20597;SDS011;10457;48.770;11.446;2023-03-11T04:55:21;2.67;;;1.30;;
20597;SDS011;10457;48.770;11.446;2023-03-11T05:00:43;1.00;;;0.90;;
20597;SDS011;10457;48.770;11.446;2023-03-11T05:06:06;2.07;;;1.00;;
20597;SDS011;10457;48.770;11.446;2023-03-11T05:11:30;1.40;;;1.30;;
20597;SDS011;10457;48.770;11.446;2023-03-11T05:16:51;1.90;;;1.63;;
20597;SDS011;10457;48.770;11.446;2023-03-11T05:22:13;2.60;;;1.50;;
20597;SDS011;10457;48.770;11.446;2023-03-11T05:27:35;3.47;;;0.97;;
20597;SDS011;10457;48.770;11.446;2023-03-11T05:32:58;4.50;;;1.27;;
20597;SDS011;10457;48.770;11.446;2023-03-11T05:38:20;2.00;;;1.27;;
20597;SDS011;10457;48.770;11.446;2023-03-11T05:43:43;0.80;;;0.80;;
20597;SDS011;10457;48.770;11.446;2023-03-11T05:49:06;3.90;;;1.20;;
20597;SDS011;10457;48.770;11.446;2023-03-11T05:54:28;6.70;;;1.23;;
20597;SDS011;10457;48.770;11.446;2023-03-11T05:59:51;1.43;;;1.33;;
20597;SDS011;10457;48.770;11.446;2023-03-11T06:05:13;1.77;;;1.40;;
20597;SDS011;10457;48.770;11.446;2023-03-11T06:10:37;1.10;;;1.00;;
20597;SDS011;10457;48.770;11.446;2023-03-11T06:16:00;1.33;;;1.20;;
20597;SDS011;10457;48.770;11.446;2023-03-11T06:21:22;2.57;;;1.00;;
20597;SDS011;10457;48.770;11.446;2023-03-11T06:26:49;2.87;;;1.40;;
20597;SDS011;10457;48.770;11.446;2023-03-11T06:32:15;1.47;;;1.10;;
20597;SDS011;10457;48.770;11.446;2023-03-11T06:37:38;3.30;;;1.30;;
20597;SDS011;10457;48.770;11.446;2023-03-11T06:43:00;3.00;;;1.20;;
20597;SDS011;10457;48.770;11.446;2023-03-11T06:48:26;4.53;;;1.27;;
20597;SDS011;10457;48.770;11.446;2023-03-11T06:53:48;1.20;;;1.10;;
20597;SDS011;10457;48.770;11.446;2023-03-11T06:59:13;1.33;;;1.10;;
20597;SDS011;10457;48.770;11.446;2023-03-11T07:04:36;1.83;;;1.20;;
20597;SDS011;10457;48.770;11.446;2023-03-11T07:09:58;0.90;;;0.90;;
20597;SDS011;10457;48.770;11.446;2023-03-11T07:15:20;0.97;;;0.70;;
20597;SDS011;10457;48.770;11.446;2023-03-11T07:20:43;1.23;;;1.03;;
20597;SDS011;10457;48.770;11.446;2023-03-11T07:26:06;2.90;;;1.20;;
20597;SDS011;10457;48.770;11.446;2023-03-11T07:31:31;5.50;;;1.43;;
20597;SDS011;10457;48.770;11.446;2023-03-11T07:36:55;2.90;;;1.30;;
20597;SDS011;10457;48.770;11.446;2023-03-11T07:42:17;2.60;;;0.73;;
20597;SDS011;10457;48.770;11.446;2023-03-11T07:47:39;2.60;;;1.27;;
20597;SDS011;10457;48.770;11.446;2023-03-11T07:53:02;2.87;;;1.23;;
20597;SDS011;10457;48.770;11.446;2023-03-11T07:58:24;3.50;;;1.03;;
20597;SDS011;10457;48.770;11.446;2023-03-11T08:03:46;1.87;;;0.90;;
20597;SDS011;10457;48.770;11.446;2023-03-11T08:09:12;2.97;;;1.03;;
20597;SDS011;10457;48.770;11.446;2023-03-11T08:14:34;2.40;;;1.27;;
20597;SDS011;10457;48.770;11.446;2023-03-11T08:19:57;1.90;;;1.20;;
20597;SDS011;10457;48.770;11.446;2023-03-11T08:25:19;4.70;;;1.67;;
20597;SDS011;10457;48.770;11.446;2023-03-11T08:30:41;2.13;;;1.43;;
20597;SDS011;10457;48.770;11.446;2023-03-11T08:36:03;2.30;;;1.60;;
20597;SDS011;10457;48.770;11.446;2023-03-11T08:41:26;1.67;;;1.20;;
20597;SDS011;10457;48.770;11.446;2023-03-11T08:46:49;1.10;;;0.93;;
20597;SDS011;10457;48.770;11.446;2023-03-11T08:52:11;2.67;;;1.30;;
20597;SDS011;10457;48.770;11.446;2023-03-11T08:57:34;1.87;;;1.00;;
20597;SDS011;10457;48.770;11.446;2023-03-11T09:02:56;3.23;;;1.30;;
20597;SDS011;10457;48.770;11.446;2023-03-11T09:08:18;2.00;;;1.50;;
20597;SDS011;10457;48.770;11.446;2023-03-11T09:13:41;3.13;;;1.30;;
20597;SDS011;10457;48.770;11.446;2023-03-11T09:19:03;1.87;;;1.30;;
20597;SDS011;10457;48.770;11.446;2023-03-11T09:24:26;3.37;;;1.23;;
20597;SDS011;10457;48.770;11.446;2023-03-11T09:29:49;1.00;;;1.00;;
20597;SDS011;10457;48.770;11.446;2023-03-11T09:35:10;1.47;;;0.80;;
20597;SDS011;10457;48.770;11.446;2023-03-11T09:40:37;2.27;;;1.40;;
20597;SDS011;10457;48.770;11.446;2023-03-11T09:46:16;1.63;;;1.47;;
20597;SDS011;10457;48.770;11.446;2023-03-11T09:51:56;2.43;;;1.30;;
20597;SDS011;10457;48.770;11.446;2023-03-11T09:57:27;1.53;;;1.17;;
20597;SDS011;10457;48.770;11.446;2023-03-11T10:02:54;2.40;;;1.30;;
20597;SDS011;10457;48.770;11.446;2023-03-11T10:08:18;2.77;;;1.70;;
20597;SDS011;10457;48.770;11.446;2023-03-11T10:13:52;1.93;;;0.83;;
20597;SDS011;10457;48.770;11.446;2023-03-11T10:19:31;2.20;;;1.23;;
20597;SDS011;10457;48.770;11.446;2023-03-11T10:25:06;4.63;;;1.30;;
20597;SDS011;10457;48.770;11.446;2023-03-11T10:30:32;1.13;;;1.00;;
20597;SDS011;10457;48.770;11.446;2023-03-11T10:36:03;1.37;;;1.00;;
20597;SDS011;10457;48.770;11.446;2023-03-11T10:41:29;1.40;;;1.20;;
20597;SDS011;10457;48.770;11.446;2023-03-11T10:47:08;3.47;;;1.20;;
20597;SDS011;10457;48.770;11.446;2023-03-11T10:58:29;3.40;;;1.97;;
20597;SDS011;10457;48.770;11.446;2023-03-11T11:03:52;4.57;;;2.03;;
20597;SDS011;10457;48.770;11.446;2023-03-11T11:09:17;4.07;;;1.57;;
20597;SDS011;10457;48.770;11.446;2023-03-11T11:14:44;1.87;;;1.43;;
20597;SDS011;10457;48.770;11.446;2023-03-11T11:20:12;2.87;;;1.83;;
20597;SDS011;10457;48.770;11.446;2023-03-11T11:25:40;7.03;;;1.87;;
20597;SDS011;10457;48.770;11.446;2023-03-11T11:31:05;1.53;;;1.40;;
20597;SDS011;10457;48.770;11.446;2023-03-11T11:36:42;2.60;;;1.60;;
20597;SDS011;10457;48.770;11.446;2023-03-11T11:42:05;4.77;;;1.60;;
20597;SDS011;10457;48.770;11.446;2023-03-11T11:47:32;1.60;;;1.50;;
20597;SDS011;10457;48.770;11.446;2023-03-11T11:52:56;4.97;;;3.40;;
20597;SDS011;10457;48.770;11.446;2023-03-11T11:58:32;6.43;;;3.47;;
20597;SDS011;10457;48.770;11.446;2023-03-11T12:09:49;5.03;;;3.00;;
20597;SDS011;10457;48.770;11.446;2023-03-11T12:15:20;3.50;;;1.93;;
20597;SDS011;10457;48.770;11.446;2023-03-11T12:20:47;3.67;;;3.07;;
20597;SDS011;10457;48.770;11.446;2023-03-11T12:26:14;4.90;;;3.60;;
20597;SDS011;10457;48.770;11.446;2023-03-11T12:31:40;20.87;;;11.93;;
20597;SDS011;10457;48.770;11.446;2023-03-11T12:37:03;17.97;;;13.37;;
20597;SDS011;10457;48.770;11.446;2023-03-11T12:42:37;9.80;;;8.17;;
20597;SDS011;10457;48.770;11.446;2023-03-11T12:53:53;17.93;;;12.07;;
20597;SDS011;10457;48.770;11.446;2023-03-11T12:59:20;8.40;;;7.30;;
20597;SDS011;10457;48.770;11.446;2023-03-11T13:05:13;3.70;;;1.40;;
20597;SDS011;10457;48.770;11.446;2023-03-11T13:10:43;4.70;;;3.13;;
20597;SDS011;10457;48.770;11.446;2023-03-11T13:21:58;3.30;;;1.20;;
20597;SDS011;10457;48.770;11.446;2023-03-11T13:27:25;2.10;;;1.27;;
20597;SDS011;10457;48.770;11.446;2023-03-11T13:33:02;1.40;;;1.17;;
20597;SDS011;10457;48.770;11.446;2023-03-11T13:38:54;5.03;;;2.40;;
20597;SDS011;10457;48.770;11.446;2023-03-11T13:44:30;4.63;;;2.43;;
20597;SDS011;10457;48.770;11.446;2023-03-11T13:49:58;2.27;;;1.87;;
20597;SDS011;10457;48.770;11.446;2023-03-11T13:55:26;5.27;;;2.50;;
20597;SDS011;10457;48.770;11.446;2023-03-11T14:00:54;2.27;;;1.30;;
20597;SDS011;10457;48.770;11.446;2023-03-11T14:06:18;2.27;;;1.33;;
20597;SDS011;10457;48.770;11.446;2023-03-11T14:11:41;2.53;;;1.53;;
20597;SDS011;10457;48.770;11.446;2023-03-11T14:17:06;2.30;;;2.10;;
20597;SDS011;10457;48.770;11.446;2023-03-11T14:22:35;3.27;;;1.67;;
20597;SDS011;10457;48.770;11.446;2023-03-11T14:27:59;3.17;;;1.70;;
20597;SDS011;10457;48.770;11.446;2023-03-11T14:33:23;3.27;;;1.73;;
20597;SDS011;10457;48.770;11.446;2023-03-11T14:38:46;1.77;;;1.63;;
20597;SDS011;10457;48.770;11.446;2023-03-11T14:44:08;3.07;;;2.50;;
20597;SDS011;10457;48.770;11.446;2023-03-11T14:49:31;2.03;;;1.80;;
20597;SDS011;10457;48.770;11.446;2023-03-11T14:54:53;2.70;;;1.23;;
20597;SDS011;10457;48.770;11.446;2023-03-11T15:00:17;3.27;;;1.87;;
20597;SDS011;10457;48.770;11.446;2023-03-11T15:05:45;2.30;;;1.70;;
20597;SDS011;10457;48.770;11.446;2023-03-11T15:11:17;3.43;;;1.80;;
20597;SDS011;10457;48.770;11.446;2023-03-11T15:16:44;1.50;;;1.40;;
20597;SDS011;10457;48.770;11.446;2023-03-11T15:22:16;1.80;;;1.60;;
20597;SDS011;10457;48.770;11.446;2023-03-11T15:27:45;2.10;;;2.00;;
20597;SDS011;10457;48.770;11.446;2023-03-11T15:33:19;2.50;;;1.80;;
20597;SDS011;10457;48.770;11.446;2023-03-11T15:38:42;1.67;;;1.37;;
20597;SDS011;10457;48.770;11.446;2023-03-11T15:44:04;3.17;;;1.23;;
20597;SDS011;10457;48.770;11.446;2023-03-11T15:49:47;3.37;;;2.03;;
20597;SDS011;10457;48.770;11.446;2023-03-11T15:55:09;5.27;;;2.83;;
20597;SDS011;10457;48.770;11.446;2023-03-11T16:00:32;5.40;;;2.03;;
20597;SDS011;10457;48.770;11.446;2023-03-11T16:05:57;1.93;;;1.63;;
20597;SDS011;10457;48.770;11.446;2023-03-11T16:11:18;3.43;;;1.97;;
20597;SDS011;10457;48.770;11.446;2023-03-11T16:16:40;4.60;;;1.90;;
20597;SDS011;10457;48.770;11.446;2023-03-11T16:22:03;3.63;;;2.10;;
20597;SDS011;10457;48.770;11.446;2023-03-11T16:27:24;1.97;;;1.87;;
20597;SDS011;10457;48.770;11.446;2023-03-11T16:32:47;4.53;;;2.20;;
20597;SDS011;10457;48.770;11.446;2023-03-11T16:38:10;3.20;;;2.40;;
20597;SDS011;10457;48.770;11.446;2023-03-11T16:43:32;2.53;;;1.97;;
20597;SDS011;10457;48.770;11.446;2023-03-11T16:48:53;4.57;;;2.10;;
20597;SDS011;10457;48.770;11.446;2023-03-11T16:54:16;5.93;;;2.23;;
20597;SDS011;10457;48.770;11.446;2023-03-11T16:59:38;6.57;;;2.17;;
20597;SDS011;10457;48.770;11.446;2023-03-11T17:04:59;4.73;;;1.93;;
20597;SDS011;10457;48.770;11.446;2023-03-11T17:10:22;4.73;;;2.17;;
20597;SDS011;10457;48.770;11.446;2023-03-11T17:15:44;10.20;;;4.33;;
20597;SDS011;10457;48.770;11.446;2023-03-11T17:21:05;8.87;;;3.20;;
20597;SDS011;10457;48.770;11.446;2023-03-11T17:26:30;5.17;;;2.80;;
20597;SDS011;10457;48.770;11.446;2023-03-11T17:31:51;5.13;;;2.60;;
20597;SDS011;10457;48.770;11.446;2023-03-11T17:37:12;5.30;;;2.77;;
20597;SDS011;10457;48.770;11.446;2023-03-11T17:42:37;6.10;;;3.97;;
20597;SDS011;10457;48.770;11.446;2023-03-11T17:47:58;10.93;;;4.27;;
20597;SDS011;10457;48.770;11.446;2023-03-11T17:53:20;7.73;;;4.27;;
20597;SDS011;10457;48.770;11.446;2023-03-11T17:58:43;10.90;;;5.57;;
20597;SDS011;10457;48.770;11.446;2023-03-11T18:04:04;7.43;;;4.80;;
20597;SDS011;10457;48.770;11.446;2023-03-11T18:09:26;6.97;;;3.97;;
20597;SDS011;10457;48.770;11.446;2023-03-11T18:14:49;7.13;;;4.37;;
20597;SDS011;10457;48.770;11.446;2023-03-11T18:20:11;7.67;;;5.33;;
20597;SDS011;10457;48.770;11.446;2023-03-11T18:25:33;8.27;;;5.50;;
20597;SDS011;10457;48.770;11.446;2023-03-11T18:31:03;9.43;;;5.53;;
20597;SDS011;10457;48.770;11.446;2023-03-11T18:36:26;9.10;;;5.10;;
20597;SDS011;10457;48.770;11.446;2023-03-11T18:41:49;14.20;;;6.10;;
20597;SDS011;10457;48.770;11.446;2023-03-11T18:47:12;6.33;;;5.33;;
20597;SDS011;10457;48.770;11.446;2023-03-11T18:52:33;12.53;;;5.13;;
20597;SDS011;10457;48.770;11.446;2023-03-11T18:57:55;10.30;;;6.30;;
20597;SDS011;10457;48.770;11.446;2023-03-11T19:03:18;8.03;;;4.83;;
20597;SDS011;10457;48.770;11.446;2023-03-11T19:08:39;8.67;;;5.60;;
20597;SDS011;10457;48.770;11.446;2023-03-11T19:14:00;6.73;;;5.50;;
20597;SDS011;10457;48.770;11.446;2023-03-11T19:19:23;8.70;;;5.70;;
20597;SDS011;10457;48.770;11.446;2023-03-11T19:24:45;10.70;;;5.40;;
20597;SDS011;10457;48.770;11.446;2023-03-11T19:30:07;8.47;;;5.13;;
20597;SDS011;10457;48.770;11.446;2023-03-11T19:35:31;5.17;;;3.10;;
20597;SDS011;10457;48.770;11.446;2023-03-11T19:40:58;5.37;;;3.10;;
20597;SDS011;10457;48.770;11.446;2023-03-11T19:46:22;4.73;;;3.50;;
20597;SDS011;10457;48.770;11.446;2023-03-11T19:51:44;6.73;;;5.47;;
20597;SDS011;10457;48.770;11.446;2023-03-11T19:57:06;8.50;;;6.33;;
20597;SDS011;10457;48.770;11.446;2023-03-11T20:02:28;14.57;;;7.90;;
20597;SDS011;10457;48.770;11.446;2023-03-11T20:07:51;14.60;;;8.63;;
20597;SDS011;10457;48.770;11.446;2023-03-11T20:13:12;10.37;;;8.13;;
20597;SDS011;10457;48.770;11.446;2023-03-11T20:18:34;14.80;;;8.67;;
20597;SDS011;10457;48.770;11.446;2023-03-11T20:23:57;14.43;;;8.40;;
20597;SDS011;10457;48.770;11.446;2023-03-11T20:29:18;21.30;;;11.07;;
20597;SDS011;10457;48.770;11.446;2023-03-11T20:34:40;23.47;;;11.80;;
20597;SDS011;10457;48.770;11.446;2023-03-11T20:40:05;20.07;;;10.87;;
20597;SDS011;10457;48.770;11.446;2023-03-11T20:45:28;20.90;;;12.53;;
20597;SDS011;10457;48.770;11.446;2023-03-11T20:50:52;20.93;;;13.17;;
20597;SDS011;10457;48.770;11.446;2023-03-11T20:56:16;22.13;;;13.90;;
20597;SDS011;10457;48.770;11.446;2023-03-11T21:01:40;37.97;;;21.10;;
20597;SDS011;10457;48.770;11.446;2023-03-11T21:07:04;42.90;;;21.27;;
20597;SDS011;10457;48.770;11.446;2023-03-11T21:12:27;39.77;;;20.90;;
20597;SDS011;10457;48.770;11.446;2023-03-11T21:17:49;36.13;;;17.93;;
20597;SDS011;10457;48.770;11.446;2023-03-11T21:23:10;33.83;;;17.00;;
20597;SDS011;10457;48.770;11.446;2023-03-11T21:28:35;26.13;;;15.20;;
20597;SDS011;10457;48.770;11.446;2023-03-11T21:34:01;28.60;;;15.83;;
20597;SDS011;10457;48.770;11.446;2023-03-11T21:39:22;25.03;;;16.67;;
20597;SDS011;10457;48.770;11.446;2023-03-11T21:44:45;25.90;;;15.70;;
20597;SDS011;10457;48.770;11.446;2023-03-11T21:50:07;18.23;;;11.60;;
20597;SDS011;10457;48.770;11.446;2023-03-11T21:55:30;21.50;;;13.60;;
20597;SDS011;10457;48.770;11.446;2023-03-11T22:00:53;24.73;;;14.50;;
20597;SDS011;10457;48.770;11.446;2023-03-11T22:06:15;23.97;;;14.67;;
20597;SDS011;10457;48.770;11.446;2023-03-11T22:11:36;21.13;;;12.80;;
20597;SDS011;10457;48.770;11.446;2023-03-11T22:16:59;19.37;;;12.00;;
20597;SDS011;10457;48.770;11.446;2023-03-11T22:22:20;15.07;;;11.00;;
20597;SDS011;10457;48.770;11.446;2023-03-11T22:27:42;17.27;;;10.33;;
20597;SDS011;10457;48.770;11.446;2023-03-11T22:33:05;18.23;;;10.33;;
20597;SDS011;10457;48.770;11.446;2023-03-11T22:38:27;12.37;;;9.03;;
20597;SDS011;10457;48.770;11.446;2023-03-11T22:43:49;13.13;;;8.47;;
20597;SDS011;10457;48.770;11.446;2023-03-11T22:49:12;14.87;;;10.40;;
20597;SDS011;10457;48.770;11.446;2023-03-11T22:54:35;14.80;;;9.87;;
20597;SDS011;10457;48.770;11.446;2023-03-11T22:59:56;16.77;;;9.93;;
20597;SDS011;10457;48.770;11.446;2023-03-11T23:05:21;17.67;;;10.57;;
20597;SDS011;10457;48.770;11.446;2023-03-11T23:10:44;18.43;;;10.80;;
20597;SDS011;10457;48.770;11.446;2023-03-11T23:16:09;16.63;;;10.27;;
20597;SDS011;10457;48.770;11.446;2023-03-11T23:21:34;16.03;;;10.27;;
20597;SDS011;10457;48.770;11.446;2023-03-11T23:26:56;20.83;;;12.27;;
20597;SDS011;10457;48.770;11.446;2023-03-11T23:32:17;19.63;;;10.93;;
20597;SDS011;10457;48.770;11.446;2023-03-11T23:37:40;19.10;;;11.00;;
20597;SDS011;10457;48.770;11.446;2023-03-11T23:43:04;17.83;;;11.10;;
20597;SDS011;10457;48.770;11.446;2023-03-11T23:48:33;19.77;;;10.47;;
20597;SDS011;10457;48.770;11.446;2023-03-11T23:53:56;17.60;;;10.87;;
20597;SDS011;10457;48.770;11.446;2023-03-11T23:59:17;18.33;;;10.80;;
